Time;durP1;ratioP1;P1;durP2;ratioP2;P2;SDS_P1;SDS_P2;PMS_P1;PMS_P2;Temp;Humidity;BMP_temperature;BMP_pressure;BME280_temperature;BME280_humidity;BME280_pressure;Samples;Min_cycle;Max_cycle;Signal;HPM_P1;HPM_P2
2021/03/12 00:00:50;;;;;;;0.70;0.70;;;5.90;99.90;;;;;;5180105;27;20229;-83
2021/03/12 00:03:18;;;;;;;2.05;0.60;;;6.00;99.90;;;;;;5180363;27;20198;-81
2021/03/12 00:05:46;;;;;;;1.50;1.00;;;6.00;99.90;;;;;;5180255;27;20190;-82
2021/03/12 00:08:12;;;;;;;1.67;0.95;;;6.00;99.90;;;;;;5178648;27;20197;-82
2021/03/12 00:10:39;;;;;;;3.42;1.20;;;6.00;99.90;;;;;;5179745;27;20230;-82
2021/03/12 00:13:06;;;;;;;1.38;0.73;;;6.00;99.90;;;;;;5179366;27;20209;-82
2021/03/12 00:15:33;;;;;;;0.47;0.47;;;6.10;99.90;;;;;;5179170;27;20211;-81
2021/03/12 00:17:59;;;;;;;1.08;0.90;;;6.20;99.90;;;;;;5180311;27;20179;-82
2021/03/12 00:20:31;;;;;;;2.38;0.85;;;6.30;99.90;;;;;;5179285;27;20198;-82
2021/03/12 00:22:58;;;;;;;0.50;0.50;;;6.30;99.90;;;;;;5178634;27;20214;-82
2021/03/12 00:25:28;;;;;;;0.70;0.70;;;6.40;99.90;;;;;;5178141;27;20225;-83
2021/03/12 00:27:54;;;;;;;0.85;0.68;;;6.40;99.90;;;;;;5180308;27;20202;-81
2021/03/12 00:30:21;;;;;;;1.27;0.80;;;6.40;99.90;;;;;;5179561;27;20198;-81
2021/03/12 00:32:48;;;;;;;4.93;1.15;;;6.50;99.90;;;;;;5177647;27;20210;-81
2021/03/12 00:35:15;;;;;;;1.85;1.00;;;6.50;99.90;;;;;;5175645;27;20288;-82
2021/03/12 00:37:42;;;;;;;1.33;0.95;;;6.50;99.90;;;;;;5178732;27;20210;-82
2021/03/12 00:40:13;;;;;;;1.67;1.60;;;6.60;99.90;;;;;;5178111;27;20213;-82
2021/03/12 00:42:40;;;;;;;1.27;1.27;;;6.70;99.90;;;;;;5177947;27;20222;-81
2021/03/12 00:45:09;;;;;;;2.05;0.98;;;6.70;99.90;;;;;;5179449;27;20182;-82
2021/03/12 00:47:36;;;;;;;1.65;0.90;;;6.50;99.90;;;;;;5178956;27;20235;-81
2021/03/12 00:50:04;;;;;;;1.40;0.82;;;6.50;99.90;;;;;;5179256;27;20198;-81
2021/03/12 00:52:30;;;;;;;1.60;1.08;;;6.50;99.90;;;;;;5179199;27;20262;-81
2021/03/12 00:54:57;;;;;;;2.60;1.10;;;6.50;99.90;;;;;;5178937;27;20200;-82
2021/03/12 00:57:23;;;;;;;2.90;1.20;;;6.60;99.90;;;;;;5179092;27;20209;-82
2021/03/12 00:59:49;;;;;;;2.03;0.95;;;6.50;99.90;;;;;;5178509;27;20190;-82
2021/03/12 01:02:16;;;;;;;2.72;1.20;;;6.40;99.90;;;;;;5178003;27;20378;-81
2021/03/12 01:04:42;;;;;;;4.00;1.25;;;6.30;99.90;;;;;;5178958;27;20198;-81
2021/03/12 01:07:09;;;;;;;1.30;0.73;;;6.30;99.90;;;;;;5179159;27;20252;-81
2021/03/12 01:09:36;;;;;;;2.85;0.98;;;6.30;99.90;;;;;;5177552;27;20230;-82
2021/03/12 01:12:02;;;;;;;0.85;0.85;;;6.40;99.90;;;;;;5173334;27;20384;-82
2021/03/12 01:14:28;;;;;;;2.88;1.42;;;6.40;99.90;;;;;;5172431;27;20216;-82
2021/03/12 01:16:55;;;;;;;1.48;0.82;;;6.50;99.90;;;;;;5172068;27;20206;-82
2021/03/12 01:19:21;;;;;;;2.95;1.90;;;6.50;99.90;;;;;;5172235;27;20206;-82
2021/03/12 01:21:48;;;;;;;5.10;1.42;;;6.40;99.90;;;;;;5171274;27;20305;-82
2021/03/12 01:24:15;;;;;;;0.60;0.60;;;6.50;99.90;;;;;;5174636;27;20209;-83
2021/03/12 01:26:42;;;;;;;2.95;1.33;;;6.50;99.90;;;;;;5175088;27;20216;-83
2021/03/12 01:29:08;;;;;;;1.17;1.10;;;6.50;99.90;;;;;;5172828;27;20206;-83
2021/03/12 01:31:34;;;;;;;0.77;0.70;;;6.60;99.90;;;;;;5170580;27;20284;-82
2021/03/12 01:34:01;;;;;;;0.70;0.65;;;6.50;99.90;;;;;;5171858;27;20198;-81
2021/03/12 01:36:27;;;;;;;0.95;0.95;;;6.50;99.90;;;;;;5171799;27;20218;-81
2021/03/12 01:38:53;;;;;;;0.70;0.70;;;6.60;99.90;;;;;;5171295;27;20198;-81
2021/03/12 01:41:21;;;;;;;1.00;0.90;;;6.40;99.90;;;;;;5171761;27;20241;-81
2021/03/12 01:43:47;;;;;;;2.28;1.25;;;6.40;99.90;;;;;;5171653;27;20261;-81
2021/03/12 01:46:13;;;;;;;2.35;0.98;;;6.30;99.90;;;;;;5171166;27;20203;-82
2021/03/12 01:48:39;;;;;;;1.83;1.15;;;6.20;99.90;;;;;;5171010;27;20209;-80
2021/03/12 01:51:08;;;;;;;0.75;0.60;;;6.10;99.90;;;;;;5165305;27;20243;-79
2021/03/12 01:53:36;;;;;;;0.93;0.57;;;5.40;99.90;;;;;;5165498;27;20198;-81
2021/03/12 01:56:04;;;;;;;0.60;0.60;;;5.10;99.90;;;;;;5169163;27;20205;-81
2021/03/12 01:58:32;;;;;;;1.77;0.90;;;5.00;99.90;;;;;;5171759;27;20222;-81
2021/03/12 02:01:01;;;;;;;1.75;0.85;;;5.10;99.90;;;;;;5172975;27;20257;-81
2021/03/12 02:03:31;;;;;;;1.77;0.65;;;5.10;99.90;;;;;;5171770;27;20202;-82
2021/03/12 02:05:57;;;;;;;1.08;0.88;;;5.00;99.90;;;;;;5172258;27;20236;-81
2021/03/12 02:08:24;;;;;;;2.53;1.17;;;5.00;99.90;;;;;;5172465;27;20219;-82
2021/03/12 02:10:51;;;;;;;2.35;1.75;;;5.00;99.90;;;;;;5172402;27;20247;-81
2021/03/12 02:13:28;;;;;;;0.90;0.85;;;5.10;99.90;;;;;;5172742;27;20201;-82
2021/03/12 02:16:02;;;;;;;1.20;1.10;;;5.10;99.90;;;;;;5172667;27;20273;-81
2021/03/12 02:18:33;;;;;;;1.40;1.30;;;5.10;99.90;;;;;;5172583;27;20202;-81
2021/03/12 02:21:07;;;;;;;1.30;1.05;;;5.20;99.90;;;;;;5173046;27;20226;-81
2021/03/12 02:24:00;;;;;;;2.25;1.30;;;5.20;99.90;;;;;;5171484;27;20202;-81
2021/03/12 02:26:39;;;;;;;3.42;1.02;;;5.30;99.90;;;;;;5171549;27;20254;-81
2021/03/12 02:29:12;;;;;;;2.75;1.33;;;5.40;99.90;;;;;;5171813;27;20675;-82
2021/03/12 02:31:41;;;;;;;1.55;1.00;;;5.40;99.90;;;;;;5171614;27;20252;-82
2021/03/12 02:34:09;;;;;;;0.93;0.93;;;5.50;99.90;;;;;;5169399;27;20357;-81
2021/03/12 02:36:37;;;;;;;1.85;1.67;;;5.50;99.90;;;;;;5167366;27;20410;-81
2021/03/12 02:39:07;;;;;;;1.77;1.00;;;5.60;99.90;;;;;;5173030;27;20198;-81
2021/03/12 02:41:34;;;;;;;1.67;1.33;;;5.60;99.90;;;;;;5170534;27;20244;-81
2021/03/12 02:44:02;;;;;;;0.98;0.90;;;5.60;99.90;;;;;;5170387;27;20202;-82
2021/03/12 02:46:30;;;;;;;1.63;1.30;;;5.70;99.90;;;;;;5169817;27;20583;-82
2021/03/12 02:48:57;;;;;;;1.00;1.00;;;5.80;99.90;;;;;;5170686;27;20217;-81
2021/03/12 02:51:24;;;;;;;1.67;1.48;;;5.80;99.90;;;;;;5170527;27;20230;-81
2021/03/12 02:53:51;;;;;;;1.27;1.17;;;5.90;99.90;;;;;;5172224;27;20683;-82
2021/03/12 02:56:18;;;;;;;2.42;1.60;;;5.80;99.90;;;;;;5172866;27;20310;-82
2021/03/12 02:58:47;;;;;;;2.88;1.30;;;5.80;99.90;;;;;;5171498;27;20660;-82
2021/03/12 03:01:15;;;;;;;1.58;1.05;;;5.90;99.90;;;;;;5173173;27;20317;-82
2021/03/12 03:03:43;;;;;;;1.58;0.73;;;5.90;99.90;;;;;;5172968;27;20225;-82
2021/03/12 03:06:11;;;;;;;1.15;0.90;;;6.00;99.90;;;;;;5173537;27;20217;-82
2021/03/12 03:08:41;;;;;;;0.77;0.77;;;6.00;99.90;;;;;;5176551;27;20274;-82
2021/03/12 03:11:09;;;;;;;2.20;1.05;;;6.00;99.90;;;;;;5175704;27;20229;-81
2021/03/12 03:13:37;;;;;;;2.65;0.98;;;6.00;99.90;;;;;;5175553;27;20205;-82
2021/03/12 03:16:06;;;;;;;1.13;0.60;;;6.00;99.90;;;;;;5173686;27;20214;-82
2021/03/12 03:18:36;;;;;;;1.20;0.93;;;6.00;99.90;;;;;;5174035;27;20236;-82
2021/03/12 03:21:05;;;;;;;1.48;0.77;;;6.00;99.90;;;;;;5173954;27;20222;-82
2021/03/12 03:23:32;;;;;;;0.80;0.80;;;6.00;99.90;;;;;;5174988;27;20195;-82
2021/03/12 03:26:00;;;;;;;0.77;0.75;;;6.00;99.90;;;;;;5176183;27;20182;-82
2021/03/12 03:28:26;;;;;;;2.88;1.10;;;6.00;99.90;;;;;;5174978;27;20198;-82
2021/03/12 03:30:52;;;;;;;1.35;0.80;;;6.00;99.90;;;;;;5174264;27;20226;-82
2021/03/12 03:33:19;;;;;;;3.00;1.45;;;5.90;99.90;;;;;;5173654;27;20231;-82
2021/03/12 03:35:45;;;;;;;1.10;1.00;;;5.80;99.90;;;;;;5173966;27;20228;-82
2021/03/12 03:38:12;;;;;;;1.00;0.65;;;5.70;99.90;;;;;;5173990;27;20202;-82
2021/03/12 03:40:38;;;;;;;2.53;0.70;;;5.70;99.90;;;;;;5174466;27;20206;-82
2021/03/12 03:43:06;;;;;;;0.70;0.70;;;5.70;99.90;;;;;;5174483;27;20198;-81
2021/03/12 03:45:34;;;;;;;0.85;0.85;;;5.60;99.90;;;;;;5174762;27;20213;-82
2021/03/12 03:48:01;;;;;;;4.50;1.00;;;5.50;99.90;;;;;;5173639;27;20208;-82
2021/03/12 03:50:29;;;;;;;1.02;0.60;;;5.40;99.90;;;;;;5174624;27;20289;-82
2021/03/12 03:52:56;;;;;;;1.00;0.85;;;5.40;99.90;;;;;;5174847;27;20223;-82
2021/03/12 03:55:26;;;;;;;4.45;0.70;;;5.50;99.90;;;;;;5174772;27;20205;-82
2021/03/12 03:57:53;;;;;;;0.98;0.82;;;5.40;99.90;;;;;;5174677;27;20548;-82
2021/03/12 04:00:21;;;;;;;1.65;0.70;;;5.20;99.90;;;;;;5174060;27;20207;-82
2021/03/12 04:02:48;;;;;;;1.08;0.90;;;5.20;99.90;;;;;;5173700;27;20233;-82
2021/03/12 04:05:15;;;;;;;1.02;0.95;;;5.20;99.90;;;;;;5174328;27;20217;-82
2021/03/12 04:07:42;;;;;;;0.60;0.60;;;5.20;99.90;;;;;;5174471;27;20206;-81
2021/03/12 04:10:10;;;;;;;1.00;0.80;;;5.10;99.90;;;;;;5175051;27;20206;-82
2021/03/12 04:12:38;;;;;;;1.75;1.30;;;5.20;99.90;;;;;;5173518;27;20226;-82
2021/03/12 04:15:07;;;;;;;2.70;1.55;;;5.10;99.90;;;;;;5173545;27;20207;-82
2021/03/12 04:17:35;;;;;;;1.45;1.08;;;5.20;99.90;;;;;;5174547;27;20199;-82
2021/03/12 04:20:03;;;;;;;1.70;0.60;;;5.10;99.90;;;;;;5175120;27;20207;-82
2021/03/12 04:22:30;;;;;;;2.45;1.15;;;5.20;99.90;;;;;;5173582;27;20308;-82
2021/03/12 04:24:56;;;;;;;2.38;0.93;;;5.20;99.90;;;;;;5174255;27;20202;-82
2021/03/12 04:27:23;;;;;;;2.50;0.95;;;5.20;99.90;;;;;;5173093;27;20203;-82
2021/03/12 04:29:51;;;;;;;1.27;1.17;;;5.20;99.90;;;;;;5173498;27;20199;-82
2021/03/12 04:32:18;;;;;;;2.63;1.00;;;5.30;99.90;;;;;;5173460;27;20223;-82
2021/03/12 04:34:44;;;;;;;5.05;1.13;;;5.30;99.90;;;;;;5173120;27;20206;-81
2021/03/12 04:37:10;;;;;;;2.58;1.50;;;5.30;99.90;;;;;;5173669;27;20206;-82
2021/03/12 04:39:37;;;;;;;4.70;1.85;;;5.30;99.90;;;;;;5173351;27;20266;-82
2021/03/12 04:42:05;;;;;;;5.30;0.60;;;5.30;99.90;;;;;;5172902;27;20611;-82
2021/03/12 04:44:32;;;;;;;1.10;0.98;;;5.30;99.90;;;;;;5173651;27;20212;-82
2021/03/12 04:47:02;;;;;;;0.90;0.90;;;5.30;99.90;;;;;;5173338;27;20294;-82
2021/03/12 04:49:28;;;;;;;1.20;0.80;;;5.30;99.90;;;;;;5172899;27;20217;-80
2021/03/12 04:51:55;;;;;;;2.60;1.17;;;5.20;99.90;;;;;;5171109;27;20226;-82
2021/03/12 04:54:21;;;;;;;1.45;1.35;;;5.10;99.90;;;;;;5173567;27;20206;-81
2021/03/12 04:56:48;;;;;;;1.42;1.08;;;5.00;99.90;;;;;;5171422;27;20206;-82
2021/03/12 04:59:15;;;;;;;0.77;0.63;;;5.00;99.90;;;;;;5157611;27;20216;-83
2021/03/12 05:01:42;;;;;;;1.30;0.98;;;5.10;99.90;;;;;;5157489;27;20218;-84
2021/03/12 05:04:11;;;;;;;2.17;0.70;;;5.10;99.90;;;;;;5158497;27;20198;-83
2021/03/12 05:06:41;;;;;;;2.10;1.50;;;5.10;99.90;;;;;;5157989;27;20202;-82
2021/03/12 05:09:09;;;;;;;4.95;1.25;;;5.10;99.90;;;;;;5158877;27;20332;-82
2021/03/12 05:11:36;;;;;;;1.80;0.90;;;5.10;99.90;;;;;;5156816;27;20225;-84
2021/03/12 05:14:02;;;;;;;0.75;0.70;;;5.00;99.90;;;;;;5157524;27;20206;-83
2021/03/12 05:16:28;;;;;;;2.42;1.13;;;5.00;99.90;;;;;;5158886;27;20198;-82
2021/03/12 05:18:54;;;;;;;3.78;1.00;;;5.00;99.90;;;;;;5158267;27;20198;-84
2021/03/12 05:21:22;;;;;;;1.98;0.85;;;4.90;99.90;;;;;;5157976;27;20218;-82
2021/03/12 05:23:48;;;;;;;1.40;0.70;;;4.90;99.90;;;;;;5158879;27;20202;-83
2021/03/12 05:26:15;;;;;;;1.33;1.15;;;5.00;99.90;;;;;;5159032;27;20212;-84
2021/03/12 05:28:41;;;;;;;2.15;0.90;;;5.00;99.90;;;;;;5158369;27;20206;-84
2021/03/12 05:31:07;;;;;;;1.77;1.65;;;5.10;99.90;;;;;;5158870;27;20368;-84
2021/03/12 05:33:34;;;;;;;2.50;1.33;;;5.20;99.90;;;;;;5158550;27;20230;-83
2021/03/12 05:36:00;;;;;;;1.48;1.13;;;5.20;99.90;;;;;;5158478;27;20294;-84
2021/03/12 05:38:27;;;;;;;1.83;1.10;;;5.20;99.90;;;;;;5160033;27;20202;-83
2021/03/12 05:40:54;;;;;;;1.25;0.90;;;5.20;99.90;;;;;;5163390;27;20705;-84
2021/03/12 05:43:20;;;;;;;1.08;0.90;;;5.10;99.90;;;;;;5159185;27;20206;-84
2021/03/12 05:45:47;;;;;;;1.80;1.38;;;5.10;99.90;;;;;;5159010;27;20205;-83
2021/03/12 05:48:15;;;;;;;1.60;0.77;;;5.10;99.90;;;;;;5158965;27;20202;-83
2021/03/12 05:50:42;;;;;;;3.13;1.42;;;5.10;99.90;;;;;;5158660;27;20218;-83
2021/03/12 05:53:09;;;;;;;3.75;1.27;;;5.20;99.90;;;;;;5158716;27;20226;-83
2021/03/12 05:55:36;;;;;;;4.25;1.63;;;5.20;99.90;;;;;;5158685;27;20208;-83
2021/03/12 05:58:03;;;;;;;7.45;1.17;;;5.30;99.90;;;;;;5157988;27;20206;-83
2021/03/12 06:00:29;;;;;;;1.38;0.93;;;5.40;99.90;;;;;;5157983;27;20309;-83
2021/03/12 06:02:55;;;;;;;1.67;1.33;;;5.50;99.90;;;;;;5158120;27;20548;-84
2021/03/12 06:05:22;;;;;;;1.55;1.10;;;5.50;99.90;;;;;;5158498;27;20205;-82
2021/03/12 06:07:49;;;;;;;1.15;0.65;;;5.40;99.90;;;;;;5157667;27;20239;-84
2021/03/12 06:10:15;;;;;;;2.88;0.80;;;5.20;99.90;;;;;;5158087;27;20734;-83
2021/03/12 06:12:42;;;;;;;0.77;0.77;;;5.10;99.90;;;;;;5158146;27;20327;-83
2021/03/12 06:15:10;;;;;;;1.05;0.73;;;5.10;99.90;;;;;;5162256;27;20206;-83
2021/03/12 06:17:40;;;;;;;0.63;0.63;;;5.00;99.90;;;;;;5167966;27;20209;-82
2021/03/12 06:20:09;;;;;;;2.95;1.30;;;5.00;99.90;;;;;;5164844;27;20644;-83
2021/03/12 06:22:36;;;;;;;4.57;1.30;;;5.00;99.90;;;;;;5163580;27;20223;-82
2021/03/12 06:25:14;;;;;;;1.55;1.20;;;5.10;99.90;;;;;;5161192;27;20217;-83
2021/03/12 06:27:40;;;;;;;2.00;1.00;;;5.10;99.90;;;;;;5161518;27;20204;-83
2021/03/12 06:30:09;;;;;;;2.10;0.70;;;5.10;99.90;;;;;;5161156;27;20229;-83
2021/03/12 06:32:41;;;;;;;5.72;1.83;;;5.30;99.90;;;;;;5160499;27;20274;-82
2021/03/12 06:35:09;;;;;;;0.80;0.80;;;5.40;99.90;;;;;;5160792;27;20205;-81
2021/03/12 06:37:36;;;;;;;0.70;0.60;;;5.50;99.90;;;;;;5160765;27;20245;-82
2021/03/12 06:40:12;;;;;;;1.67;0.75;;;5.50;99.90;;;;;;5161046;27;20288;-82
2021/03/12 06:42:56;;;;;;;2.47;1.33;;;5.60;99.90;;;;;;5159988;27;20240;-82
2021/03/12 06:45:23;;;;;;;1.27;1.20;;;5.60;99.90;;;;;;5160439;27;20202;-83
2021/03/12 06:47:50;;;;;;;3.50;1.35;;;5.70;99.90;;;;;;5160685;27;20198;-81
2021/03/12 06:50:16;;;;;;;1.17;1.10;;;5.70;99.90;;;;;;5161004;27;20252;-82
2021/03/12 06:52:43;;;;;;;3.80;0.95;;;5.80;99.90;;;;;;5160282;27;20247;-83
2021/03/12 06:55:10;;;;;;;1.27;1.08;;;5.80;99.90;;;;;;5160985;27;20218;-83
2021/03/12 06:57:36;;;;;;;1.95;1.25;;;5.90;99.90;;;;;;5160360;27;20202;-83
2021/03/12 07:00:06;;;;;;;2.28;1.30;;;5.90;99.90;;;;;;5160152;27;20206;-83
2021/03/12 07:02:36;;;;;;;1.27;1.05;;;6.00;99.90;;;;;;5159888;27;20244;-83
2021/03/12 07:05:03;;;;;;;2.25;0.85;;;6.00;99.90;;;;;;5160409;27;20573;-82
2021/03/12 07:07:35;;;;;;;3.42;1.15;;;6.00;99.90;;;;;;5160680;27;20203;-83
2021/03/12 07:10:01;;;;;;;7.30;1.27;;;5.90;99.90;;;;;;5160123;27;20202;-83
2021/03/12 07:12:48;;;;;;;2.45;1.30;;;5.80;99.90;;;;;;5160568;27;20222;-84
2021/03/12 07:15:15;;;;;;;3.15;1.60;;;5.80;99.90;;;;;;5160322;27;20222;-82
2021/03/12 07:17:43;;;;;;;4.10;1.55;;;5.80;99.90;;;;;;5161548;27;20581;-83
2021/03/12 07:20:11;;;;;;;2.95;1.05;;;5.90;99.90;;;;;;5164810;27;20206;-81
2021/03/12 07:22:48;;;;;;;2.08;1.25;;;6.00;99.90;;;;;;5168041;27;20222;-80
2021/03/12 07:25:26;;;;;;;6.13;1.10;;;6.00;99.90;;;;;;5167575;27;20201;-82
2021/03/12 07:28:01;;;;;;;1.95;1.00;;;6.00;99.90;;;;;;5166567;27;20202;-82
2021/03/12 07:30:30;;;;;;;2.80;1.42;;;6.10;99.90;;;;;;5162492;27;20674;-82
2021/03/12 07:33:03;;;;;;;1.38;0.95;;;6.10;99.90;;;;;;5161595;27;20243;-82
2021/03/12 07:35:34;;;;;;;1.52;1.40;;;6.20;99.90;;;;;;5160056;27;20198;-84
2021/03/12 07:38:04;;;;;;;1.85;1.02;;;6.20;99.90;;;;;;5161765;27;20229;-84
2021/03/12 07:40:32;;;;;;;1.80;1.55;;;6.30;99.90;;;;;;5162022;27;20198;-84
2021/03/12 07:42:59;;;;;;;2.03;1.23;;;6.30;99.90;;;;;;5163938;27;20253;-85
2021/03/12 07:45:29;;;;;;;0.80;0.80;;;6.30;99.90;;;;;;5162209;27;20209;-82
2021/03/12 07:47:56;;;;;;;1.58;1.13;;;6.30;99.90;;;;;;5160720;27;20318;-81
2021/03/12 07:50:25;;;;;;;1.85;1.05;;;6.20;99.90;;;;;;5160563;27;20643;-81
2021/03/12 07:52:54;;;;;;;2.30;1.48;;;6.10;99.90;;;;;;5159996;27;20605;-82
2021/03/12 07:55:54;;;;;;;1.48;0.68;;;6.10;99.90;;;;;;5159213;27;20234;-82
2021/03/12 07:58:51;;;;;;;1.77;0.90;;;6.20;99.90;;;;;;5158824;27;20179;-82
2021/03/12 08:01:18;;;;;;;1.50;0.68;;;6.20;99.90;;;;;;5159054;27;20222;-82
2021/03/12 08:03:51;;;;;;;1.95;1.30;;;6.40;99.90;;;;;;5158891;27;20625;-82
2021/03/12 08:06:35;;;;;;;2.35;1.20;;;6.40;99.90;;;;;;5158956;27;20214;-82
2021/03/12 08:09:25;;;;;;;1.15;0.75;;;6.60;99.90;;;;;;5158103;27;20202;-85
2021/03/12 08:12:06;;;;;;;2.03;1.83;;;6.80;99.90;;;;;;5161302;27;20273;-82
2021/03/12 08:14:36;;;;;;;4.47;1.55;;;6.90;99.90;;;;;;5163298;27;20190;-83
2021/03/12 08:17:19;;;;;;;1.13;1.00;;;7.00;99.90;;;;;;5159349;27;20193;-83
2021/03/12 08:19:49;;;;;;;0.70;0.60;;;7.10;99.90;;;;;;5158679;27;20647;-83
2021/03/12 08:22:42;;;;;;;2.45;0.80;;;7.10;99.90;;;;;;5157971;27;20234;-83
2021/03/12 08:29:34;;;;;;;3.00;1.25;;;7.20;99.90;;;;;;5150716;27;20206;-84
2021/03/12 08:32:02;;;;;;;1.30;0.80;;;7.20;99.90;;;;;;5158705;27;20222;-84
2021/03/12 08:34:57;;;;;;;1.05;0.70;;;7.20;99.90;;;;;;5158595;27;20209;-83
2021/03/12 08:37:43;;;;;;;1.48;0.90;;;7.40;99.90;;;;;;5158690;27;20199;-82
2021/03/12 08:40:38;;;;;;;1.67;1.00;;;7.50;99.90;;;;;;5158561;27;20205;-84
2021/03/12 08:43:37;;;;;;;2.40;1.10;;;7.50;99.90;;;;;;5159393;27;20190;-83
2021/03/12 08:46:48;;;;;;;;;;;;;;;;;;;;;
2021/03/12 08:49:20;;;;;;;1.67;0.95;;;7.80;99.90;;;;;;5133907;27;20332;-83
2021/03/12 08:51:46;;;;;;;1.00;0.82;;;8.00;99.90;;;;;;5158022;27;20230;-81
2021/03/12 08:54:14;;;;;;;1.70;0.50;;;8.10;99.90;;;;;;5157527;27;20289;-81
2021/03/12 08:56:51;;;;;;;3.63;1.30;;;8.20;99.90;;;;;;5157093;27;20190;-83
2021/03/12 09:02:41;;;;;;;5.85;1.55;;;8.20;99.90;;;;;;5122277;27;20724;-82
2021/03/12 09:05:24;;;;;;;1.92;0.77;;;8.20;99.90;;;;;;5156962;27;20234;-82
2021/03/12 09:08:01;;;;;;;1.73;0.85;;;8.20;99.90;;;;;;5155393;27;20206;-85
2021/03/12 09:10:35;;;;;;;1.05;0.95;;;8.20;99.90;;;;;;5159565;27;20216;-83
2021/03/12 09:13:02;;;;;;;1.50;0.77;;;8.30;99.90;;;;;;5160504;27;20210;-82
2021/03/12 09:18:49;;;;;;;1.58;1.13;;;8.60;99.90;;;;;;5151167;27;20210;-84
2021/03/12 09:21:39;;;;;;;;;;;;;;;;;;;;;
2021/03/12 09:28:02;;;;;;;5.88;1.00;;;8.50;99.90;;;;;;5096321;27;20444;-79
2021/03/12 09:30:53;;;;;;;0.95;0.73;;;8.60;99.90;;;;;;5158094;27;20245;-84
2021/03/12 09:33:29;;;;;;;1.58;0.82;;;8.30;99.90;;;;;;5156267;27;20694;-84
2021/03/12 09:35:57;;;;;;;1.50;0.98;;;8.40;99.90;;;;;;5159840;27;20190;-80
2021/03/12 09:42:03;;;;;;;1.08;0.65;;;8.60;99.90;;;;;;5121723;27;20217;-82
2021/03/12 09:44:32;;;;;;;1.95;1.55;;;8.90;99.20;;;;;;5146665;27;20222;-83
2021/03/12 09:47:06;;;;;;;1.05;0.80;;;9.10;99.90;;;;;;5158314;27;20235;-82
2021/03/12 09:50:26;;;;;;;2.67;1.15;;;9.30;99.90;;;;;;5163511;27;20236;-84
2021/03/12 09:52:58;;;;;;;1.00;1.00;;;9.40;99.90;;;;;;5035955;28;20239;-84
2021/03/12 09:55:25;;;;;;;1.70;1.03;;;9.50;99.90;;;;;;5076904;28;20202;-83
2021/03/12 10:01:12;;;;;;;1.38;0.90;;;9.50;99.90;;;;;;5154165;27;20477;-82
2021/03/12 10:07:40;;;;;;;3.28;1.10;;;9.20;99.90;;;;;;5116491;27;20199;-82
2021/03/12 10:10:33;;;;;;;12.23;1.55;;;8.90;99.90;;;;;;5139208;27;20706;-83
2021/03/12 10:13:22;;;;;;;;;;;;;;;;;;;;;
2021/03/12 10:15:54;;;;;;;0.98;0.50;;;8.50;99.90;;;;;;5163760;27;20289;-85
2021/03/12 10:18:35;;;;;;;;;;;;;;;;;;;;;
2021/03/12 10:21:08;;;;;;;2.63;1.20;;;8.40;99.90;;;;;;5164778;27;20287;-83
2021/03/12 10:23:34;;;;;;;2.25;1.20;;;8.20;99.90;;;;;;5162378;27;20206;-82
2021/03/12 10:26:05;;;;;;;1.65;1.23;;;7.80;99.90;;;;;;5162583;27;20190;-82
2021/03/12 10:28:33;;;;;;;1.75;0.85;;;7.80;99.90;;;;;;5162726;27;20206;-82
2021/03/12 10:31:00;;;;;;;1.10;1.00;;;7.90;99.90;;;;;;5162116;27;20238;-82
2021/03/12 10:33:30;;;;;;;2.35;1.30;;;8.00;99.90;;;;;;5161973;27;20246;-82
2021/03/12 10:35:59;;;;;;;3.10;1.00;;;7.90;99.90;;;;;;5162290;27;20202;-82
2021/03/12 10:38:27;;;;;;;0.75;0.57;;;7.90;99.90;;;;;;5161707;27;20213;-82
2021/03/12 10:40:57;;;;;;;1.00;0.90;;;7.80;99.90;;;;;;5161879;27;20219;-82
2021/03/12 10:43:25;;;;;;;0.93;0.93;;;7.90;99.90;;;;;;5162030;27;20592;-81
2021/03/12 10:45:52;;;;;;;2.13;1.10;;;8.30;99.90;;;;;;5161325;27;20202;-81
2021/03/12 10:48:21;;;;;;;2.60;0.88;;;8.30;99.90;;;;;;5154798;27;20213;-78
2021/03/12 10:51:07;;;;;;;5.82;1.20;;;8.20;99.90;;;;;;5138769;27;20243;-84
2021/03/12 10:53:47;;;;;;;2.50;0.70;;;8.50;99.90;;;;;;5139212;27;20211;-86
2021/03/12 10:56:14;;;;;;;2.00;0.90;;;8.60;99.90;;;;;;5146046;27;20203;-82
2021/03/12 10:58:45;;;;;;;0.60;0.50;;;8.70;99.90;;;;;;5152924;27;20637;-83
2021/03/12 11:01:19;;;;;;;1.25;0.88;;;8.80;99.90;;;;;;5159558;27;20656;-83
2021/03/12 11:03:46;;;;;;;1.40;0.95;;;8.80;99.90;;;;;;5160421;27;20210;-84
2021/03/12 11:06:14;;;;;;;1.30;0.95;;;8.60;99.90;;;;;;5162300;27;20202;-82
2021/03/12 11:08:42;;;;;;;3.25;1.33;;;8.60;99.90;;;;;;5162099;27;20259;-84
2021/03/12 11:11:10;;;;;;;3.45;1.33;;;8.80;99.90;;;;;;5161976;27;20226;-84
2021/03/12 11:13:38;;;;;;;1.08;0.50;;;9.50;99.90;;;;;;5161549;27;20223;-83
2021/03/12 11:16:05;;;;;;;0.57;0.50;;;10.00;99.20;;;;;;5162094;27;20689;-82
2021/03/12 11:18:32;;;;;;;2.90;0.98;;;10.40;99.20;;;;;;5161791;27;20453;-81
2021/03/12 11:20:58;;;;;;;0.50;0.50;;;11.10;98.00;;;;;;5161561;27;20233;-83
2021/03/12 11:23:26;;;;;;;0.97;0.97;;;11.50;94.40;;;;;;5158848;27;20454;-81
2021/03/12 11:25:53;;;;;;;2.20;0.70;;;11.70;93.10;;;;;;5162193;27;20943;-84
2021/03/12 11:28:20;;;;;;;0.83;0.63;;;11.90;91.70;;;;;;5160650;27;20528;-83
2021/03/12 11:30:46;;;;;;;1.03;0.73;;;12.30;91.70;;;;;;5161345;27;21231;-83
2021/03/12 11:33:14;;;;;;;3.33;0.70;;;12.60;91.20;;;;;;5162536;27;20478;-83
2021/03/12 11:35:41;;;;;;;1.03;0.60;;;12.90;90.80;;;;;;5153417;27;20804;-84
2021/03/12 11:38:09;;;;;;;3.13;1.00;;;13.00;87.30;;;;;;5143192;27;20483;-83
2021/03/12 11:40:37;;;;;;;1.93;1.00;;;13.10;84.60;;;;;;5161179;27;20832;-83
2021/03/12 11:43:04;;;;;;;1.60;0.87;;;13.00;86.30;;;;;;5159747;27;20508;-83
2021/03/12 11:45:30;;;;;;;0.90;0.80;;;13.20;85.70;;;;;;5160200;27;20447;-83
2021/03/12 11:47:58;;;;;;;0.93;0.70;;;13.40;79.70;;;;;;5156234;27;20476;-85
2021/03/12 11:50:27;;;;;;;0.63;0.63;;;13.10;76.40;;;;;;5160166;27;20481;-83
2021/03/12 11:52:53;;;;;;;1.17;0.97;;;12.70;76.90;;;;;;5160337;27;20481;-82
2021/03/12 11:55:20;;;;;;;1.13;0.80;;;11.80;76.50;;;;;;5162115;27;20462;-80
2021/03/12 11:57:48;;;;;;;1.50;0.90;;;11.30;79.00;;;;;;5159691;27;20450;-84
2021/03/12 12:03:47;;;;;;;1.10;0.80;;;10.20;80.70;;;;;;5101907;27;20483;-83
2021/03/12 12:06:14;;;;;;;1.30;0.73;;;10.10;88.40;;;;;;5158834;27;20427;-83
2021/03/12 12:08:41;;;;;;;1.23;0.80;;;10.30;92.20;;;;;;5161133;27;20479;-80
2021/03/12 12:11:12;;;;;;;1.10;1.03;;;10.40;91.10;;;;;;5168943;27;20482;-83
2021/03/12 12:13:53;;;;;;;;;;;;;;;;;;;;;
2021/03/12 12:16:42;;;;;;;1.10;0.97;;;10.70;91.90;;;;;;5161740;27;20526;-83
2021/03/12 12:19:16;;;;;;;1.40;1.03;;;10.70;92.30;;;;;;5072998;28;20476;-83
2021/03/12 12:21:57;;;;;;;1.37;1.13;;;10.60;93.10;;;;;;5150333;27;20485;-82
2021/03/12 12:28:06;;;;;;;3.20;1.33;;;11.50;92.60;;;;;;5163631;27;20454;-83
2021/03/12 12:30:55;;;;;;;;;;;;;;;;;;;;;
2021/03/12 12:33:28;;;;;;;1.40;1.30;;;11.40;91.10;;;;;;5158215;27;20481;-84
2021/03/12 12:35:56;;;;;;;1.60;0.67;;;11.20;90.20;;;;;;5158038;27;20490;-84
2021/03/12 12:38:35;;;;;;;1.00;0.87;;;11.00;87.10;;;;;;5159198;27;20452;-84
2021/03/12 12:41:09;;;;;;;0.70;0.70;;;11.20;87.10;;;;;;5160354;27;20469;-83
2021/03/12 12:44:03;;;;;;;1.13;1.03;;;11.50;88.30;;;;;;5160400;27;20508;-83
2021/03/12 12:46:39;;;;;;;1.63;1.03;;;12.10;85.60;;;;;;5160124;27;20500;-82
2021/03/12 12:49:06;;;;;;;2.07;0.97;;;12.70;81.80;;;;;;5156167;27;20446;-81
2021/03/12 12:51:32;;;;;;;0.70;0.60;;;12.30;80.80;;;;;;5156965;27;20471;-82
2021/03/12 12:54:01;;;;;;;2.00;1.03;;;12.20;81.30;;;;;;5156796;27;20492;-82
2021/03/12 12:56:33;;;;;;;1.17;0.70;;;12.20;75.70;;;;;;5159113;27;20445;-82
2021/03/12 12:59:09;;;;;;;2.70;0.80;;;11.80;76.00;;;;;;5159978;27;20454;-84
2021/03/12 13:01:51;;;;;;;0.80;0.80;;;11.50;77.10;;;;;;5144336;27;20865;-84
2021/03/12 13:04:17;;;;;;;1.23;0.60;;;12.10;78.40;;;;;;5137647;27;20459;-82
2021/03/12 13:06:43;;;;;;;0.93;0.93;;;12.70;75.70;;;;;;5139091;27;20455;-83
2021/03/12 13:09:09;;;;;;;0.60;0.60;;;12.60;71.80;;;;;;5139293;27;20499;-85
2021/03/12 13:11:36;;;;;;;3.73;1.60;;;11.80;71.10;;;;;;5136561;27;20469;-84
2021/03/12 13:14:02;;;;;;;1.60;1.00;;;11.20;74.90;;;;;;5137636;27;20486;-82
2021/03/12 13:16:29;;;;;;;3.03;1.00;;;10.70;74.70;;;;;;5136611;27;20446;-83
2021/03/12 13:18:57;;;;;;;1.00;0.90;;;10.50;75.50;;;;;;5138496;27;20450;-84
2021/03/12 13:21:24;;;;;;;2.03;1.17;;;10.50;76.70;;;;;;5138150;27;20469;-84
2021/03/12 13:23:51;;;;;;;2.13;1.05;;;10.10;78.30;;;;;;5137897;27;20455;-85
2021/03/12 13:26:18;;;;;;;1.73;0.93;;;10.40;78.70;;;;;;5138888;27;20231;-84
2021/03/12 13:28:45;;;;;;;1.37;0.93;;;10.90;79.10;;;;;;5135994;27;20212;-81
2021/03/12 13:31:12;;;;;;;2.23;0.53;;;11.30;78.70;;;;;;5135029;27;20495;-82
2021/03/12 13:33:39;;;;;;;0.87;0.70;;;11.90;77.40;;;;;;5135123;27;20546;-81
2021/03/12 13:36:07;;;;;;;3.33;1.00;;;12.70;74.30;;;;;;5135642;27;20498;-82
2021/03/12 13:38:33;;;;;;;1.47;0.80;;;13.00;72.30;;;;;;5137324;27;20452;-85
2021/03/12 13:41:00;;;;;;;2.00;0.90;;;13.50;68.20;;;;;;5137661;27;20475;-81
2021/03/12 13:43:27;;;;;;;2.10;1.03;;;14.10;68.60;;;;;;5135556;27;20447;-83
2021/03/12 13:45:54;;;;;;;1.03;0.93;;;14.70;64.80;;;;;;5136929;27;20452;-83
2021/03/12 13:48:20;;;;;;;1.93;1.00;;;15.00;64.00;;;;;;5136899;27;20453;-82
2021/03/12 13:50:47;;;;;;;1.47;1.10;;;15.10;62.20;;;;;;5137835;27;20480;-84